Time;durP1;ratioP1;P1;durP2;ratioP2;P2;SDS_P1;SDS_P2;PMS_P1;PMS_P2;Temp;Humidity;BMP_temperature;BMP_pressure;BME280_temperature;BME280_humidity;BME280_pressure;Samples;Min_cycle;Max_cycle;Signal;HPM_P1;HPM_P2
2022/05/05 00:01:52;;;;;;;;;33.25;25.00;;;;;-143.93;100.00;62969.28;5001975;28;8801;-66
2022/05/05 00:04:19;;;;;;;;;29.50;26.00;;;;;-143.93;100.00;62969.28;5001006;28;8819;-66
2022/05/05 00:06:45;;;;;;;;;28.25;24.75;;;;;-143.93;100.00;62969.28;4992920;28;8964;-67
2022/05/05 00:09:11;;;;;;;;;29.75;26.00;;;;;-143.93;100.00;62969.28;5004018;28;9442;-66
2022/05/05 00:14:31;;;;;;;;;31.00;25.75;;;;;-143.93;100.00;62969.28;5003331;28;8839;-66
2022/05/05 00:17:02;;;;;;;;;32.25;26.00;;;;;-143.93;100.00;62969.28;4992011;28;8808;-66
2022/05/05 00:19:30;;;;;;;;;31.00;27.00;;;;;-143.93;100.00;62969.28;5007643;28;9644;-66
2022/05/05 00:21:56;;;;;;;;;27.50;22.25;;;;;-143.93;100.00;62969.28;4992993;28;8790;-66
2022/05/05 00:24:21;;;;;;;;;26.25;25.25;;;;;-143.93;100.00;62969.28;4992043;28;8848;-66
2022/05/05 00:26:46;;;;;;;;;25.75;24.25;;;;;-143.93;100.00;62969.28;4988960;28;8799;-67
2022/05/05 00:29:12;;;;;;;;;27.00;22.25;;;;;-143.93;100.00;62969.28;4991880;28;8804;-66
2022/05/05 00:31:38;;;;;;;;;21.00;20.00;;;;;-143.93;100.00;62969.28;4992525;28;8815;-66
2022/05/05 00:34:03;;;;;;;;;28.75;24.00;;;;;-143.93;100.00;62969.28;4996947;28;8845;-66
2022/05/05 00:36:28;;;;;;;;;28.50;23.25;;;;;-143.93;100.00;62969.28;5001822;28;8812;-66
2022/05/05 00:38:54;;;;;;;;;30.00;21.75;;;;;-143.93;100.00;62969.28;5003495;28;8797;-66
2022/05/05 00:41:19;;;;;;;;;24.25;23.00;;;;;-143.93;100.00;62969.28;5005715;28;8883;-66
2022/05/05 00:43:45;;;;;;;;;26.00;23.50;;;;;-143.93;100.00;62969.28;5001518;28;8955;-66
2022/05/05 00:46:10;;;;;;;;;27.00;22.75;;;;;-143.93;100.00;62969.28;5000375;28;8852;-66
2022/05/05 00:48:36;;;;;;;;;24.00;21.75;;;;;-143.93;100.00;62969.28;5000491;28;8847;-66
2022/05/05 00:51:01;;;;;;;;;22.75;19.75;;;;;-143.93;100.00;62969.28;4994681;28;8821;-67
2022/05/05 00:53:27;;;;;;;;;19.50;17.75;;;;;-143.93;100.00;62969.28;5002670;28;8817;-66
2022/05/05 00:56:02;;;;;;;;;22.00;18.75;;;;;-143.93;100.00;62969.28;5001253;28;8817;-66
2022/05/05 00:58:27;;;;;;;;;22.00;17.00;;;;;-143.93;100.00;62969.28;5000238;28;8915;-66
2022/05/05 01:00:54;;;;;;;;;23.50;18.25;;;;;-143.93;100.00;62969.28;5000298;28;8825;-66
2022/05/05 01:03:20;;;;;;;;;25.50;21.00;;;;;-143.93;100.00;62969.28;5001005;28;8832;-66
2022/05/05 01:05:45;;;;;;;;;21.00;17.25;;;;;-143.93;100.00;62969.28;5015294;28;8825;-66
2022/05/05 01:08:11;;;;;;;;;26.25;17.75;;;;;-143.93;100.00;62969.28;5005429;28;8844;-66
2022/05/05 01:10:36;;;;;;;;;18.50;17.00;;;;;-143.93;100.00;62969.28;5004302;28;8864;-66
2022/05/05 01:13:02;;;;;;;;;16.50;15.50;;;;;-143.93;100.00;62969.28;5012372;28;8819;-66
2022/05/05 01:15:30;;;;;;;;;16.75;15.00;;;;;-143.93;100.00;62969.28;4995529;28;8801;-66
2022/05/05 01:17:56;;;;;;;;;24.50;18.50;;;;;-143.93;100.00;62969.28;4991254;28;8789;-66
2022/05/05 01:20:22;;;;;;;;;21.25;16.50;;;;;-143.93;100.00;62969.28;4994019;28;8807;-67
2022/05/05 01:22:49;;;;;;;;;20.75;18.00;;;;;-143.93;100.00;62969.28;4994849;28;8820;-66
2022/05/05 01:28:14;;;;;;;;;17.50;16.00;;;;;-143.93;100.00;62969.28;4995356;28;8930;-66
2022/05/05 01:30:45;;;;;;;;;18.50;16.50;;;;;-143.93;100.00;62969.28;4995300;28;8820;-66
2022/05/05 01:33:10;;;;;;;;;4.50;1.75;;;;;-143.93;100.00;62969.28;4993078;28;8824;-66
2022/05/05 01:35:36;;;;;;;;;18.25;16.00;;;;;-143.93;100.00;62969.28;4992421;28;8813;-66
2022/05/05 01:38:01;;;;;;;;;23.50;16.00;;;;;-143.93;100.00;62969.28;5004906;28;8828;-66
2022/05/05 01:40:26;;;;;;;;;14.00;13.25;;;;;-143.93;100.00;62969.28;5003218;28;8825;-67
2022/05/05 01:42:52;;;;;;;;;14.00;12.75;;;;;-143.93;100.00;62969.28;5002919;28;9537;-66
2022/05/05 01:45:17;;;;;;;;;18.25;14.00;;;;;-143.93;100.00;62969.28;5004164;28;8836;-66
2022/05/05 01:47:42;;;;;;;;;15.25;10.75;;;;;-143.93;100.00;62969.28;5006458;28;9597;-66
2022/05/05 01:50:08;;;;;;;;;15.50;12.25;;;;;-143.93;100.00;62969.28;4993924;28;8823;-66
2022/05/05 01:52:34;;;;;;;;;15.75;12.25;;;;;-143.93;100.00;62969.28;5000962;28;8852;-66
2022/05/05 01:54:59;;;;;;;;;14.25;12.00;;;;;-143.93;100.00;62969.28;5002579;28;8894;-66
2022/05/05 01:57:25;;;;;;;;;12.50;9.50;;;;;-143.93;100.00;62969.28;5003474;28;8919;-66
2022/05/05 01:59:50;;;;;;;;;16.25;13.25;;;;;-143.93;100.00;62969.28;5007162;28;8930;-66
2022/05/05 02:02:15;;;;;;;;;16.00;11.75;;;;;-143.93;100.00;62969.28;5004615;28;8828;-67
2022/05/05 02:04:41;;;;;;;;;14.00;12.25;;;;;-143.93;100.00;62969.28;5005560;28;8818;-66
2022/05/05 02:07:06;;;;;;;;;14.25;12.75;;;;;-143.93;100.00;62969.28;5001474;28;8828;-66
2022/05/05 02:09:31;;;;;;;;;15.25;13.50;;;;;-143.93;100.00;62969.28;4994471;28;8821;-67
2022/05/05 02:11:57;;;;;;;;;13.00;11.00;;;;;-143.93;100.00;62969.28;5012582;28;8796;-67
2022/05/05 02:14:23;;;;;;;;;16.50;12.75;;;;;-143.93;100.00;62969.28;4993323;28;8804;-66
2022/05/05 02:16:51;;;;;;;;;14.25;10.50;;;;;-143.93;100.00;62969.28;4994216;28;8812;-66
2022/05/05 02:19:17;;;;;;;;;15.00;10.25;;;;;-143.93;100.00;62969.28;4994355;28;8833;-66
2022/05/05 02:21:42;;;;;;;;;13.75;13.75;;;;;-143.93;100.00;62969.28;4994312;28;9604;-67
2022/05/05 02:24:07;;;;;;;;;14.25;11.00;;;;;-143.93;100.00;62969.28;4991839;28;8831;-66
2022/05/05 02:26:33;;;;;;;;;13.75;12.00;;;;;-143.93;100.00;62969.28;4992104;28;8812;-67
2022/05/05 02:28:58;;;;;;;;;11.75;11.00;;;;;-143.93;100.00;62969.28;4994301;28;8893;-67
2022/05/05 02:31:24;;;;;;;;;10.50;10.00;;;;;-143.93;100.00;62969.28;4998897;28;8848;-67
2022/05/05 02:33:50;;;;;;;;;13.25;11.50;;;;;-143.93;100.00;62969.28;5001803;28;8817;-67
2022/05/05 02:38:59;;;;;;;;;12.25;11.50;;;;;-143.93;100.00;62969.28;4990567;28;8807;-66
2022/05/05 02:41:25;;;;;;;;;13.00;11.00;;;;;-143.93;100.00;62969.28;5005756;28;8890;-67
2022/05/05 02:43:50;;;;;;;;;13.25;10.75;;;;;-143.93;100.00;62969.28;5001574;28;8852;-67
2022/05/05 02:46:15;;;;;;;;;15.00;13.00;;;;;-143.93;100.00;62969.28;4994036;28;8819;-67
2022/05/05 02:48:41;;;;;;;;;12.00;9.75;;;;;-143.93;100.00;62969.28;4994022;28;8918;-66
2022/05/05 02:51:07;;;;;;;;;13.50;11.00;;;;;-143.93;100.00;62969.28;4991593;28;8939;-66
2022/05/05 02:56:16;;;;;;;;;10.00;10.00;;;;;-143.93;100.00;62969.28;5004100;28;8923;-66
2022/05/05 02:58:42;;;;;;;;;13.25;8.50;;;;;-143.93;100.00;62969.28;5001976;28;9684;-67
2022/05/05 03:01:08;;;;;;;;;13.00;12.00;;;;;-143.93;100.00;62969.28;5001734;28;8841;-67
2022/05/05 03:03:34;;;;;;;;;20.50;12.50;;;;;-143.93;100.00;62969.28;5002169;28;8847;-67
2022/05/05 03:05:59;;;;;;;;;15.25;13.00;;;;;-143.93;100.00;62969.28;5009038;28;8808;-67
2022/05/05 03:08:25;;;;;;;;;14.50;10.50;;;;;-143.93;100.00;62969.28;4992226;28;8804;-67
2022/05/05 03:10:50;;;;;;;;;16.00;12.00;;;;;-143.93;100.00;62969.28;5002387;28;8814;-67
2022/05/05 03:13:15;;;;;;;;;12.75;10.25;;;;;-143.93;100.00;62969.28;5003310;28;8816;-67
2022/05/05 03:15:41;;;;;;;;;13.25;10.75;;;;;-143.93;100.00;62969.28;4993696;28;8937;-66
2022/05/05 03:18:06;;;;;;;;;13.00;12.25;;;;;-143.93;100.00;62969.28;4991098;28;8828;-67
2022/05/05 03:20:31;;;;;;;;;14.25;13.50;;;;;-143.93;100.00;62969.28;4991501;28;8923;-66
2022/05/05 03:22:57;;;;;;;;;13.50;10.50;;;;;-143.93;100.00;62969.28;4993589;28;8800;-66
2022/05/05 03:25:22;;;;;;;;;12.00;11.75;;;;;-143.93;100.00;62969.28;4993546;28;8974;-66
2022/05/05 03:27:49;;;;;;;;;16.75;12.25;;;;;-143.93;100.00;62969.28;4993222;28;8816;-66
2022/05/05 03:30:15;;;;;;;;;18.25;14.00;;;;;-143.93;100.00;62969.28;4991789;28;8894;-67
2022/05/05 03:32:40;;;;;;;;;13.75;12.50;;;;;-143.93;100.00;62969.28;4990875;28;8792;-66
2022/05/05 03:35:06;;;;;;;;;16.75;11.50;;;;;-143.93;100.00;62969.28;5006789;28;8856;-67
2022/05/05 03:37:31;;;;;;;;;14.00;13.25;;;;;-143.93;100.00;62969.28;4997364;28;8816;-67
2022/05/05 03:39:57;;;;;;;;;13.75;12.50;;;;;-143.93;100.00;62969.28;4994220;28;8816;-66
2022/05/05 03:42:22;;;;;;;;;10.75;10.50;;;;;-143.93;100.00;62969.28;5008023;28;8805;-67
2022/05/05 03:44:48;;;;;;;;;13.25;11.50;;;;;-143.93;100.00;62969.28;4989784;28;9460;-66
2022/05/05 03:47:13;;;;;;;;;14.75;13.75;;;;;-143.93;100.00;62969.28;4992333;28;8838;-66
2022/05/05 03:49:38;;;;;;;;;13.50;12.25;;;;;-143.93;100.00;62969.28;4999983;28;8900;-66
2022/05/05 03:52:04;;;;;;;;;22.50;18.25;;;;;-143.93;100.00;62969.28;5001280;28;8832;-66
2022/05/05 03:54:30;;;;;;;;;17.50;15.75;;;;;-143.93;100.00;62969.28;5001376;27;8807;-66
2022/05/05 03:56:55;;;;;;;;;18.75;13.25;;;;;-143.93;100.00;62969.28;5005442;28;8816;-66
2022/05/05 03:59:22;;;;;;;;;13.00;13.00;;;;;-143.93;100.00;62969.28;5003717;28;8817;-65
2022/05/05 04:01:48;;;;;;;;;21.00;14.00;;;;;-143.93;100.00;62969.28;5001016;28;8874;-68
2022/05/05 04:04:13;;;;;;;;;16.50;14.75;;;;;-143.93;100.00;62969.28;5000466;28;8829;-65
2022/05/05 04:06:39;;;;;;;;;16.25;13.25;;;;;-143.93;100.00;62969.28;5001243;28;9401;-66
2022/05/05 04:09:05;;;;;;;;;17.00;13.75;;;;;-143.93;100.00;62969.28;5003969;28;8810;-65
2022/05/05 04:11:30;;;;;;;;;18.75;15.50;;;;;-143.93;100.00;62969.28;5003741;28;8778;-65
2022/05/05 04:13:56;;;;;;;;;19.75;16.25;;;;;-143.93;100.00;62969.28;5001866;28;8852;-65
2022/05/05 04:16:21;;;;;;;;;18.00;13.75;;;;;-143.93;100.00;62969.28;5001181;28;8925;-65
2022/05/05 04:18:47;;;;;;;;;17.75;13.25;;;;;-143.93;100.00;62969.28;5000867;28;8928;-66
2022/05/05 04:21:13;;;;;;;;;18.00;17.75;;;;;-143.93;100.00;62969.28;5002743;28;8816;-66
2022/05/05 04:23:39;;;;;;;;;23.75;17.00;;;;;-143.93;100.00;62969.28;5004744;28;8847;-67
2022/05/05 04:26:05;;;;;;;;;19.25;14.00;;;;;-143.93;100.00;62969.28;4991501;28;8795;-67
2022/05/05 04:28:31;;;;;;;;;16.50;14.75;;;;;-143.93;100.00;62969.28;4998786;28;8805;-67
2022/05/05 04:30:57;;;;;;;;;15.50;14.75;;;;;-143.93;100.00;62969.28;5000676;28;9485;-67
2022/05/05 04:33:23;;;;;;;;;25.75;16.50;;;;;-143.93;100.00;62969.28;5001368;28;8818;-68
2022/05/05 04:35:49;;;;;;;;;16.25;13.25;;;;;-143.93;100.00;62969.28;5007708;28;8868;-67
2022/05/05 04:38:15;;;;;;;;;18.00;15.50;;;;;-143.93;100.00;62969.28;4992350;28;9481;-67
2022/05/05 04:40:40;;;;;;;;;19.00;13.25;;;;;-143.93;100.00;62969.28;4999701;28;9545;-67
2022/05/05 04:43:06;;;;;;;;;18.50;14.50;;;;;-143.93;100.00;62969.28;5002519;28;8828;-67
2022/05/05 04:45:31;;;;;;;;;24.50;15.50;;;;;-143.93;100.00;62969.28;4995448;28;8910;-67
2022/05/05 04:47:57;;;;;;;;;16.00;14.75;;;;;-143.93;100.00;62969.28;4991738;28;8806;-67
2022/05/05 04:50:23;;;;;;;;;21.75;17.25;;;;;-143.93;100.00;62969.28;5009374;28;9273;-67
2022/05/05 04:52:49;;;;;;;;;23.25;14.75;;;;;-143.93;100.00;62969.28;4995362;28;9646;-67
2022/05/05 04:55:14;;;;;;;;;17.00;14.25;;;;;-143.93;100.00;62969.28;4995128;28;9048;-68
2022/05/05 04:57:39;;;;;;;;;22.00;18.00;;;;;-143.93;100.00;62969.28;4995292;28;9615;-67
2022/05/05 05:00:07;;;;;;;;;21.25;16.50;;;;;-143.93;100.00;62969.28;4992098;28;8848;-67
2022/05/05 05:02:32;;;;;;;;;18.25;16.25;;;;;-143.93;100.00;62969.28;4993039;28;8800;-67
2022/05/05 05:04:57;;;;;;;;;18.00;14.50;;;;;-143.93;100.00;62969.28;5003733;28;8883;-67
2022/05/05 05:07:23;;;;;;;;;25.25;21.00;;;;;-143.93;100.00;62969.28;4998989;28;8812;-67
2022/05/05 05:09:51;;;;;;;;;23.75;19.25;;;;;-143.93;100.00;62969.28;4994817;28;8823;-67
2022/05/05 05:12:16;;;;;;;;;21.25;18.25;;;;;-143.93;100.00;62969.28;5020647;27;9570;-67
2022/05/05 05:14:41;;;;;;;;;28.75;22.25;;;;;-143.93;100.00;62969.28;5014309;27;8793;-67
2022/05/05 05:17:07;;;;;;;;;24.75;21.00;;;;;-143.93;100.00;62969.28;5005389;28;8828;-67
2022/05/05 05:19:32;;;;;;;;;25.50;20.00;;;;;-143.93;100.00;62969.28;5003143;28;8817;-67
2022/05/05 05:21:58;;;;;;;;;27.50;21.25;;;;;-143.93;100.00;62969.28;5003121;28;8836;-67
2022/05/05 05:24:23;;;;;;;;;25.25;23.00;;;;;-143.93;100.00;62969.28;5003717;28;8858;-67
2022/05/05 05:26:49;;;;;;;;;29.75;22.00;;;;;-143.93;100.00;62969.28;5007279;28;8837;-67
2022/05/05 05:29:14;;;;;;;;;25.25;21.75;;;;;-143.93;100.00;62969.28;5005201;28;8844;-67
2022/05/05 05:31:40;;;;;;;;;26.50;23.00;;;;;-143.93;100.00;62969.28;5003046;28;8826;-67
2022/05/05 05:34:05;;;;;;;;;30.50;25.00;;;;;-143.93;100.00;62969.28;5002987;28;8900;-67
2022/05/05 05:36:30;;;;;;;;;21.25;20.00;;;;;-143.93;100.00;62969.28;5003283;28;8923;-67
2022/05/05 05:38:56;;;;;;;;;31.25;24.00;;;;;-143.93;100.00;62969.28;5010048;28;8824;-67
2022/05/05 05:41:21;;;;;;;;;24.25;23.25;;;;;-143.93;100.00;62969.28;5009453;28;8809;-67
2022/05/05 05:43:47;;;;;;;;;30.00;25.00;;;;;-143.93;100.00;62969.28;5001198;28;8857;-67
2022/05/05 05:46:12;;;;;;;;;31.75;23.00;;;;;-143.93;100.00;62969.28;5023285;28;8813;-67
2022/05/05 05:48:38;;;;;;;;;27.25;23.00;;;;;-143.93;100.00;62969.28;5002865;28;8804;-67
2022/05/05 05:51:05;;;;;;;;;25.00;19.50;;;;;-143.93;100.00;62969.28;5005726;28;8818;-67
2022/05/05 05:53:31;;;;;;;;;24.75;21.75;;;;;-143.93;100.00;62969.28;5005137;28;8914;-68
2022/05/05 05:55:56;;;;;;;;;32.50;26.75;;;;;-143.93;100.00;62969.28;5004071;28;8814;-67
2022/05/05 05:58:22;;;;;;;;;29.75;24.75;;;;;-143.93;100.00;62969.28;5002571;28;8851;-67
2022/05/05 06:00:47;;;;;;;;;31.00;26.25;;;;;-143.93;100.00;62969.28;5002119;28;8882;-67
2022/05/05 06:05:56;;;;;;;;;32.50;28.25;;;;;-143.93;100.00;62969.28;4991190;28;12222;-67
2022/05/05 06:08:22;;;;;;;;;30.00;22.75;;;;;-143.93;100.00;62969.28;4993055;28;8810;-67
2022/05/05 06:10:47;;;;;;;;;30.25;26.00;;;;;-143.93;100.00;62969.28;4994572;28;8858;-67
2022/05/05 06:13:12;;;;;;;;;33.50;25.75;;;;;-143.93;100.00;62969.28;4994782;28;8812;-67
2022/05/05 06:15:38;;;;;;;;;29.00;26.00;;;;;-143.93;100.00;62969.28;4994448;28;8814;-67
2022/05/05 06:18:03;;;;;;;;;32.50;24.50;;;;;-143.93;100.00;62969.28;5000966;28;8833;-67
2022/05/05 06:20:29;;;;;;;;;29.25;24.25;;;;;-143.93;100.00;62969.28;5004640;28;8794;-67
2022/05/05 06:22:54;;;;;;;;;32.50;25.75;;;;;-143.93;100.00;62969.28;4996342;28;8894;-67
2022/05/05 06:25:20;;;;;;;;;33.00;27.75;;;;;-143.93;100.00;62969.28;5032015;27;8827;-67
2022/05/05 06:27:47;;;;;;;;;29.25;25.00;;;;;-143.93;100.00;62969.28;5045809;27;8793;-67
2022/05/05 06:30:13;;;;;;;;;35.00;25.50;;;;;-143.93;100.00;62969.28;5003950;28;8854;-67
2022/05/05 06:32:39;;;;;;;;;33.50;26.25;;;;;-143.93;100.00;62969.28;5007320;28;8795;-67
2022/05/05 06:35:06;;;;;;;;;34.25;27.00;;;;;-143.93;100.00;62969.28;5008836;28;8836;-67
2022/05/05 06:37:31;;;;;;;;;33.25;28.00;;;;;-143.93;100.00;62969.28;5002213;28;8939;-68
2022/05/05 06:39:56;;;;;;;;;30.25;23.00;;;;;-143.93;100.00;62969.28;5002447;28;9496;-67
2022/05/05 06:42:22;;;;;;;;;31.00;26.50;;;;;-143.93;100.00;62969.28;5002620;28;8868;-68
2022/05/05 06:44:48;;;;;;;;;36.50;27.75;;;;;-143.93;100.00;62969.28;5012833;28;8845;-68
2022/05/05 06:47:13;;;;;;;;;28.75;23.00;;;;;-143.93;100.00;62969.28;5005607;28;8823;-66
2022/05/05 06:49:39;;;;;;;;;37.00;26.00;;;;;-143.93;100.00;62969.28;5006852;28;8844;-66
2022/05/05 06:52:05;;;;;;;;;29.00;24.50;;;;;-143.93;100.00;62969.28;5004891;27;8829;-66
2022/05/05 06:54:30;;;;;;;;;32.50;26.25;;;;;-143.93;100.00;62969.28;5011063;28;9036;-67
2022/05/05 06:56:56;;;;;;;;;33.50;25.50;;;;;-143.93;100.00;62969.28;5062991;27;8833;-66
2022/05/05 06:59:22;;;;;;;;;34.00;28.00;;;;;-143.93;100.00;62969.28;5008745;28;8797;-66
2022/05/05 07:01:54;;;;;;;;;37.75;30.75;;;;;-143.93;100.00;62969.28;5003541;28;8812;-66
2022/05/05 07:07:05;;;;;;;;;46.75;34.25;;;;;-143.93;100.00;62969.28;4995522;28;9616;-66
2022/05/05 07:12:15;;;;;;;;;32.25;26.00;;;;;-143.93;100.00;62969.28;5003845;28;8812;-66
2022/05/05 07:14:40;;;;;;;;;32.00;26.75;;;;;-143.93;100.00;62969.28;5011444;28;8838;-65
2022/05/05 07:17:06;;;;;;;;;38.75;30.00;;;;;-143.93;100.00;62969.28;5003120;28;8924;-66
2022/05/05 07:19:31;;;;;;;;;30.25;27.00;;;;;-143.93;100.00;62969.28;4992740;28;8804;-66
2022/05/05 07:21:57;;;;;;;;;34.25;29.50;;;;;-143.93;100.00;62969.28;5002892;28;8831;-66
2022/05/05 07:24:22;;;;;;;;;33.00;30.00;;;;;-143.93;100.00;62969.28;5003575;28;8914;-66
2022/05/05 07:26:47;;;;;;;;;37.50;31.00;;;;;-143.93;100.00;62969.28;4989002;28;8816;-66
2022/05/05 07:29:14;;;;;;;;;39.75;30.75;;;;;-143.93;100.00;62969.28;5010200;28;8817;-67
2022/05/05 07:31:39;;;;;;;;;45.25;35.75;;;;;-143.93;100.00;62969.28;5006906;27;8924;-66
2022/05/05 07:34:06;;;;;;;;;44.25;36.75;;;;;-143.93;100.00;62969.28;5006291;28;8879;-66
2022/05/05 07:36:31;;;;;;;;;43.25;34.25;;;;;-143.93;100.00;62969.28;5002331;28;8818;-65
2022/05/05 07:38:56;;;;;;;;;35.25;31.50;;;;;-143.93;100.00;62969.28;5001485;28;8831;-68
2022/05/05 07:41:22;;;;;;;;;36.00;32.75;;;;;-143.93;100.00;62969.28;5007769;28;15326;-67
2022/05/05 07:43:50;;;;;;;;;42.50;34.00;;;;;-143.93;100.00;62969.28;5007358;28;8840;-67
2022/05/05 07:46:17;;;;;;;;;43.00;34.75;;;;;-143.93;100.00;62969.28;5001204;28;8875;-67
2022/05/05 07:48:43;;;;;;;;;35.50;30.50;;;;;-143.93;100.00;62969.28;5001609;28;8858;-68
2022/05/05 07:51:09;;;;;;;;;41.25;31.25;;;;;-143.93;100.00;62969.28;5002839;28;8812;-68
2022/05/05 07:53:34;;;;;;;;;42.25;31.00;;;;;-143.93;100.00;62969.28;4990666;28;8847;-68
2022/05/05 07:55:59;;;;;;;;;34.25;30.50;;;;;-143.93;100.00;62969.28;4992876;28;8808;-68
2022/05/05 07:58:25;;;;;;;;;26.00;24.25;;;;;-143.93;100.00;62969.28;4993185;28;8815;-68
2022/05/05 08:00:50;;;;;;;;;39.50;32.75;;;;;-143.93;100.00;62969.28;4994615;28;8821;-68
2022/05/05 08:03:15;;;;;;;;;31.25;27.00;;;;;-143.93;100.00;62969.28;5005745;28;8819;-68
2022/05/05 08:05:41;;;;;;;;;35.25;30.25;;;;;-143.93;100.00;62969.28;5002231;28;11954;-68
2022/05/05 08:08:06;;;;;;;;;30.25;26.75;;;;;-143.93;100.00;62969.28;4993520;28;8823;-68
2022/05/05 08:10:32;;;;;;;;;34.00;28.50;;;;;-143.93;100.00;62969.28;4999551;28;8837;-67
2022/05/05 08:12:57;;;;;;;;;24.00;18.25;;;;;-143.93;100.00;62969.28;4997558;28;8871;-68
2022/05/05 08:15:22;;;;;;;;;31.50;25.25;;;;;-143.93;100.00;62969.28;5006403;28;8844;-69
2022/05/05 08:17:48;;;;;;;;;31.50;26.50;;;;;-143.93;100.00;62969.28;5018154;28;8921;-68
2022/05/05 08:20:15;;;;;;;;;27.25;23.50;;;;;-143.93;100.00;62969.28;5032884;28;8840;-68
2022/05/05 08:22:41;;;;;;;;;32.00;24.25;;;;;-143.93;100.00;62969.28;5003073;28;8817;-68
2022/05/05 08:30:35;;;;;;;;;30.00;25.00;;;;;-143.93;100.00;62969.28;4998493;28;8806;-66
2022/05/05 08:33:00;;;;;;;;;29.00;26.50;;;;;-143.93;100.00;62969.28;5006665;28;8856;-66
2022/05/05 08:35:27;;;;;;;;;26.75;24.75;;;;;-143.93;100.00;62969.28;5001297;28;8837;-66
2022/05/05 08:37:54;;;;;;;;;29.75;25.50;;;;;-143.93;100.00;62969.28;5007322;28;8821;-65
2022/05/05 08:40:22;;;;;;;;;33.50;26.75;;;;;-143.93;100.00;62969.28;5005263;28;8814;-66
2022/05/05 08:42:48;;;;;;;;;61.50;47.75;;;;;-143.93;100.00;62969.28;5009936;28;8802;-66
2022/05/05 08:45:13;;;;;;;;;26.50;22.25;;;;;-143.93;100.00;62969.28;5017821;28;8868;-66
2022/05/05 08:47:40;;;;;;;;;25.00;23.50;;;;;-143.93;100.00;62969.28;5023480;28;8839;-68
2022/05/05 08:50:09;;;;;;;;;32.00;25.00;;;;;-143.93;100.00;62969.28;5015986;28;8787;-68
2022/05/05 08:52:40;;;;;;;;;25.50;24.50;;;;;-143.93;100.00;62969.28;4999863;28;9615;-68
2022/05/05 08:55:05;;;;;;;;;29.50;23.00;;;;;-143.93;100.00;62969.28;5016415;28;9618;-67
2022/05/05 08:57:31;;;;;;;;;22.50;20.75;;;;;-143.93;100.00;62969.28;5030733;28;8830;-67
2022/05/05 08:59:56;;;;;;;;;28.75;25.25;;;;;-143.93;100.00;62969.28;5024080;28;8819;-67
2022/05/05 09:02:21;;;;;;;;;24.00;21.00;;;;;-143.93;100.00;62969.28;5009164;28;8816;-67
2022/05/05 09:04:47;;;;;;;;;25.50;19.75;;;;;-143.93;100.00;62969.28;5007806;28;8842;-67
2022/05/05 09:07:13;;;;;;;;;25.50;18.75;;;;;-143.93;100.00;62969.28;5001623;28;10489;-67
2022/05/05 09:09:39;;;;;;;;;19.75;18.25;;;;;-143.93;100.00;62969.28;5030949;28;8819;-66
2022/05/05 09:12:17;;;;;;;;;19.00;18.00;;;;;-143.93;100.00;62969.28;4989190;28;8820;-67
2022/05/05 09:14:48;;;;;;;;;24.50;20.25;;;;;-143.93;100.00;62969.28;5004556;28;8850;-66
2022/05/05 09:17:19;;;;;;;;;22.50;19.00;;;;;-143.93;100.00;62969.28;4994744;28;8804;-66
2022/05/05 09:19:47;;;;;;;;;21.00;18.75;;;;;-143.93;100.00;62969.28;5000665;28;9607;-66
2022/05/05 09:22:15;;;;;;;;;18.50;17.50;;;;;-143.93;100.00;62969.28;4995235;28;8885;-66
2022/05/05 09:24:46;;;;;;;;;21.75;18.50;;;;;-143.93;100.00;62969.28;4995163;28;8817;-67
2022/05/05 09:27:19;;;;;;;;;22.25;20.00;;;;;-143.93;100.00;62969.28;4992468;28;8909;-67
2022/05/05 09:30:02;;;;;;;;;28.00;20.50;;;;;-143.93;100.00;62969.28;4991446;28;9782;-66
2022/05/05 09:32:44;;;;;;;;;23.25;20.00;;;;;-143.93;100.00;62969.28;5005743;28;8812;-66
2022/05/05 09:35:15;;;;;;;;;21.50;18.00;;;;;-143.93;100.00;62969.28;4995333;28;9621;-66
2022/05/05 09:37:52;;;;;;;;;20.50;17.50;;;;;-143.93;100.00;62969.28;4994910;28;8832;-67
2022/05/05 09:40:24;;;;;;;;;14.75;13.00;;;;;-143.93;100.00;62969.28;4998713;28;8809;-67
2022/05/05 09:42:52;;;;;;;;;17.25;16.25;;;;;-143.93;100.00;62969.28;5003235;27;8809;-67
2022/05/05 09:45:29;;;;;;;;;19.25;16.00;;;;;-143.93;100.00;62969.28;5010674;28;8817;-66
2022/05/05 09:48:00;;;;;;;;;16.25;14.75;;;;;-143.93;100.00;62969.28;4998079;28;8801;-66
2022/05/05 09:50:27;;;;;;;;;17.25;16.50;;;;;-143.93;100.00;62969.28;4992673;27;8910;-67
2022/05/05 09:58:26;;;;;;;;;13.50;13.25;;;;;-143.93;100.00;62969.28;5002874;28;8802;-66
2022/05/05 10:00:59;;;;;;;;;15.25;14.25;;;;;-143.93;100.00;62969.28;5002659;27;8836;-67
2022/05/05 10:06:19;;;;;;;;;18.00;15.00;;;;;-143.93;100.00;62969.28;4992023;28;8787;-67
2022/05/05 10:08:46;;;;;;;;;16.75;15.25;;;;;-143.93;100.00;62969.28;5006387;28;8811;-67
2022/05/05 10:11:15;;;;;;;;;14.75;13.00;;;;;-143.93;100.00;62969.28;5004845;28;8786;-66
2022/05/05 10:13:42;;;;;;;;;17.25;13.00;;;;;-143.93;100.00;62969.28;5002289;27;8905;-67
2022/05/05 10:16:09;;;;;;;;;18.00;15.75;;;;;-143.93;100.00;62969.28;4994369;28;8803;-66
2022/05/05 10:18:38;;;;;;;;;15.00;15.00;;;;;-143.93;100.00;62969.28;4992554;28;8881;-66
2022/05/05 10:21:19;;;;;;;;;16.75;14.00;;;;;-143.93;100.00;62969.28;5005607;28;8954;-67
2022/05/05 10:24:08;;;;;;;;;12.25;10.75;;;;;-143.93;100.00;62969.28;5006004;28;8847;-67
2022/05/05 10:26:33;;;;;;;;;12.50;8.50;;;;;-143.93;100.00;62969.28;5005469;28;8770;-66
2022/05/05 10:28:59;;;;;;;;;9.75;8.50;;;;;-143.93;100.00;62969.28;5004109;28;9619;-66
2022/05/05 10:31:30;;;;;;;;;12.00;10.00;;;;;-143.93;100.00;62969.28;5002327;28;8797;-67
2022/05/05 10:34:14;;;;;;;;;8.75;7.50;;;;;-143.93;100.00;62969.28;5002284;28;8810;-66
2022/05/05 10:36:39;;;;;;;;;8.50;8.50;;;;;-143.93;100.00;62969.28;5002506;28;8807;-66
2022/05/05 10:39:18;;;;;;;;;7.25;7.25;;;;;-143.93;100.00;62969.28;5005142;27;10136;-66
2022/05/05 10:41:44;;;;;;;;;10.00;10.00;;;;;-143.93;100.00;62969.28;5006039;28;8836;-67
2022/05/05 10:44:15;;;;;;;;;8.75;7.25;;;;;-143.93;100.00;62969.28;5006446;28;8830;-66
2022/05/05 10:46:50;;;;;;;;;12.50;11.50;;;;;-143.93;100.00;62969.28;5002004;28;8809;-67
2022/05/05 10:49:41;;;;;;;;;54.75;44.00;;;;;-143.93;100.00;62969.28;4998394;28;8804;-66
2022/05/05 10:52:12;;;;;;;;;87.25;79.25;;;;;-143.93;100.00;62969.28;5021750;28;8803;-67
2022/05/05 10:54:42;;;;;;;;;59.50;47.50;;;;;-143.93;100.00;62969.28;5053783;27;8914;-67
2022/05/05 10:57:25;;;;;;;;;24.75;23.00;;;;;-143.93;100.00;62969.28;4991172;28;8801;-66
2022/05/05 11:00:06;;;;;;;;;7.50;7.50;;;;;-143.93;100.00;62969.28;5006298;28;8808;-66
2022/05/05 11:02:32;;;;;;;;;10.00;8.75;;;;;-143.93;100.00;62969.28;5005103;28;8813;-66
2022/05/05 11:05:24;;;;;;;;;12.00;8.00;;;;;-143.93;100.00;62969.28;5003148;28;8871;-66
2022/05/05 11:07:50;;;;;;;;;10.50;8.00;;;;;-143.93;100.00;62969.28;5002669;28;8815;-66
2022/05/05 11:10:37;;;;;;;;;7.25;7.25;;;;;-143.93;100.00;62969.28;5002018;28;8805;-67
2022/05/05 11:13:02;;;;;;;;;7.00;7.00;;;;;-143.93;100.00;62969.28;5001770;28;8805;-66
2022/05/05 11:21:32;;;;;;;;;9.50;7.25;;;;;-143.93;100.00;62969.28;4990910;28;8809;-66
2022/05/05 11:24:00;;;;;;;;;9.50;7.00;;;;;-143.93;100.00;62969.28;5002953;28;8784;-66
2022/05/05 11:26:26;;;;;;;;;4.00;4.00;;;;;-143.93;100.00;62969.28;5004106;28;8785;-66
2022/05/05 11:28:53;;;;;;;;;4.75;4.75;;;;;-143.93;100.00;62969.28;5003200;28;8820;-66
2022/05/05 11:31:21;;;;;;;;;5.50;5.50;;;;;-143.93;100.00;62969.28;5001648;28;8829;-66
2022/05/05 11:33:53;;;;;;;;;5.25;5.00;;;;;-143.93;100.00;62969.28;5001898;28;8836;-66
2022/05/05 11:36:18;;;;;;;;;6.75;6.75;;;;;-143.93;100.00;62969.28;4990883;28;8796;-66
2022/05/05 11:38:43;;;;;;;;;7.50;6.50;;;;;-143.93;100.00;62969.28;5004933;28;9626;-66
2022/05/05 11:41:10;;;;;;;;;8.25;7.25;;;;;-143.93;100.00;62969.28;5003591;28;8951;-66